Time;durP1;ratioP1;P1;durP2;ratioP2;P2;SDS_P1;SDS_P2;PMS_P1;PMS_P2;Temp;Humidity;BMP_temperature;BMP_pressure;BME280_temperature;BME280_humidity;BME280_pressure;Samples;Min_cycle;Max_cycle;Signal;HPM_P1;HPM_P2
2021/08/17 00:00:24;;;;;;;2.35;1.50;;;26.10;51.40;;;;;;5051836;28;20025;-69
2021/08/17 00:02:49;;;;;;;2.47;1.67;;;26.10;51.40;;;;;;5045705;28;20031;-63
2021/08/17 00:05:15;;;;;;;2.38;1.38;;;26.10;51.40;;;;;;5046944;28;20151;-64
2021/08/17 00:07:40;;;;;;;2.42;1.60;;;26.10;51.40;;;;;;5050213;28;20029;-64
2021/08/17 00:10:07;;;;;;;2.55;1.60;;;26.10;51.50;;;;;;5047199;28;20033;-64
2021/08/17 00:12:33;;;;;;;2.25;1.60;;;26.10;51.40;;;;;;5045784;28;20128;-66
2021/08/17 00:14:58;;;;;;;2.63;1.75;;;26.10;51.50;;;;;;5048832;28;20051;-66
2021/08/17 00:17:24;;;;;;;2.47;1.67;;;26.10;51.50;;;;;;5052076;28;20033;-65
2021/08/17 00:19:50;;;;;;;2.10;1.50;;;26.10;51.50;;;;;;5049863;28;20817;-65
2021/08/17 00:22:15;;;;;;;2.78;1.65;;;26.00;51.40;;;;;;5043402;28;20104;-64
2021/08/17 00:24:41;;;;;;;2.67;1.70;;;26.10;51.50;;;;;;5043600;28;20360;-68
2021/08/17 00:27:07;;;;;;;2.70;1.63;;;26.00;51.50;;;;;;5040879;28;20140;-63
2021/08/17 00:29:32;;;;;;;2.38;1.58;;;26.00;51.50;;;;;;5044312;28;20036;-66
2021/08/17 00:31:58;;;;;;;2.90;1.70;;;26.10;51.50;;;;;;5043790;28;20029;-68
2021/08/17 00:34:24;;;;;;;2.45;1.77;;;26.00;51.50;;;;;;5035518;28;20513;-63
2021/08/17 00:36:52;;;;;;;2.40;1.50;;;26.00;51.50;;;;;;5045110;28;20017;-63
2021/08/17 00:39:18;;;;;;;2.10;1.50;;;26.00;51.50;;;;;;5047664;28;20449;-63
2021/08/17 00:41:45;;;;;;;2.95;1.90;;;26.00;51.60;;;;;;5044707;28;20056;-63
2021/08/17 00:44:38;;;;;;;2.70;1.83;;;26.00;51.50;;;;;;5046246;28;20025;-64
2021/08/17 00:47:04;;;;;;;2.28;1.50;;;26.00;51.50;;;;;;5042851;28;20037;-65
2021/08/17 00:49:31;;;;;;;2.17;1.60;;;26.00;51.60;;;;;;5044968;28;20100;-64
2021/08/17 00:52:00;;;;;;;2.20;1.60;;;26.00;52.10;;;;;;5038664;28;20037;-69
2021/08/17 00:54:27;;;;;;;2.25;1.55;;;26.00;51.60;;;;;;5043718;28;20053;-65
2021/08/17 00:56:56;;;;;;;2.60;1.70;;;26.00;51.60;;;;;;5045549;28;20044;-66
2021/08/17 00:59:22;;;;;;;;;;;26.00;51.70;;;;;;5043056;28;20044;-65
2021/08/17 01:01:47;;;;;;;2.75;1.67;;;26.00;51.70;;;;;;5045202;28;19912;-68
2021/08/17 01:04:13;;;;;;;2.60;1.80;;;26.00;51.70;;;;;;5044660;28;20021;-65
2021/08/17 01:06:40;;;;;;;2.00;1.50;;;26.00;51.70;;;;;;5046977;28;20057;-64
2021/08/17 01:09:06;;;;;;;2.53;1.73;;;25.90;51.60;;;;;;5048861;28;20024;-70
2021/08/17 01:11:32;;;;;;;2.53;1.60;;;26.00;51.70;;;;;;5047116;28;20056;-69
2021/08/17 01:13:58;;;;;;;2.28;1.40;;;25.90;51.70;;;;;;5048748;28;20095;-69
2021/08/17 01:16:23;;;;;;;3.22;1.50;;;25.90;51.70;;;;;;5049746;28;20037;-63
2021/08/17 01:18:49;;;;;;;2.20;1.55;;;26.00;51.80;;;;;;5049060;28;20033;-70
2021/08/17 01:21:16;;;;;;;2.38;1.70;;;25.90;51.70;;;;;;5044176;28;20053;-70
2021/08/17 01:23:43;;;;;;;2.58;1.70;;;25.90;51.70;;;;;;5041813;28;20025;-65
2021/08/17 01:26:09;;;;;;;2.35;1.55;;;25.90;51.70;;;;;;5049742;28;20025;-63
2021/08/17 01:28:34;;;;;;;2.63;1.77;;;25.90;52.30;;;;;;5049550;28;20067;-65
2021/08/17 01:31:07;;;;;;;2.05;1.50;;;25.90;51.70;;;;;;5056528;28;20748;-65
2021/08/17 01:33:33;;;;;;;2.40;1.60;;;25.90;51.80;;;;;;5042972;28;20033;-66
2021/08/17 01:36:01;;;;;;;2.70;1.70;;;25.90;51.80;;;;;;5050229;28;20037;-65
2021/08/17 01:38:27;;;;;;;2.08;1.45;;;25.90;51.80;;;;;;5049076;28;20033;-64
2021/08/17 01:40:52;;;;;;;2.20;1.60;;;25.90;51.80;;;;;;5055064;28;20119;-69
2021/08/17 01:43:19;;;;;;;2.15;1.65;;;25.90;51.80;;;;;;5054309;28;20109;-66
2021/08/17 01:46:00;;;;;;;2.40;1.65;;;25.90;51.80;;;;;;5049612;28;20029;-64
2021/08/17 01:48:28;;;;;;;1.95;1.33;;;25.90;51.80;;;;;;5028354;28;20541;-64
2021/08/17 01:50:54;;;;;;;2.40;1.50;;;25.90;51.90;;;;;;5049111;28;20024;-66
2021/08/17 01:53:23;;;;;;;2.55;1.70;;;25.90;51.90;;;;;;5068221;28;20100;-65
2021/08/17 01:55:51;;;;;;;2.55;1.48;;;25.90;51.90;;;;;;5059720;28;20304;-69
2021/08/17 01:58:16;;;;;;;2.25;1.60;;;25.90;52.40;;;;;;5049125;28;20100;-63
2021/08/17 02:00:46;;;;;;;2.53;1.77;;;25.90;51.90;;;;;;5048083;28;20057;-65
2021/08/17 02:03:12;;;;;;;2.60;1.73;;;25.90;51.90;;;;;;5066921;28;20368;-65
2021/08/17 02:05:37;;;;;;;2.42;1.75;;;25.90;51.90;;;;;;5052543;28;20029;-69
2021/08/17 02:08:04;;;;;;;2.50;1.50;;;25.90;51.90;;;;;;5048004;28;20037;-65
2021/08/17 02:10:31;;;;;;;2.40;1.60;;;25.80;51.90;;;;;;5047852;28;20057;-69
2021/08/17 02:12:56;;;;;;;2.50;1.70;;;25.80;51.90;;;;;;5061983;28;20147;-66
2021/08/17 02:15:22;;;;;;;1.90;1.40;;;25.80;51.90;;;;;;5068983;28;20089;-65
2021/08/17 02:17:48;;;;;;;2.20;1.52;;;25.80;51.90;;;;;;5049577;28;20032;-69
2021/08/17 02:20:13;;;;;;;2.17;1.50;;;25.80;51.90;;;;;;5038152;28;20371;-64
2021/08/17 02:22:39;;;;;;;2.42;1.67;;;25.80;51.90;;;;;;5047978;28;20108;-65
2021/08/17 02:25:06;;;;;;;2.50;1.67;;;25.80;51.90;;;;;;5044146;28;20148;-66
2021/08/17 02:27:33;;;;;;;2.17;1.50;;;25.80;51.90;;;;;;5032509;28;20025;-66
2021/08/17 02:29:59;;;;;;;2.10;1.58;;;25.80;51.90;;;;;;5049024;28;20425;-65
2021/08/17 02:32:25;;;;;;;2.00;1.40;;;25.80;51.90;;;;;;5046210;28;20032;-69
2021/08/17 02:34:50;;;;;;;2.63;1.52;;;25.80;52.00;;;;;;5046043;28;20050;-68
2021/08/17 02:37:16;;;;;;;2.00;1.40;;;25.80;52.00;;;;;;5044017;28;20457;-65
2021/08/17 02:39:41;;;;;;;2.10;1.40;;;25.80;52.00;;;;;;5047244;28;20052;-65
2021/08/17 02:42:07;;;;;;;2.17;1.58;;;25.80;52.00;;;;;;5056015;28;20490;-66
2021/08/17 02:44:33;;;;;;;2.35;1.67;;;25.80;52.00;;;;;;5049150;28;20029;-65
2021/08/17 02:46:59;;;;;;;2.25;1.48;;;25.80;52.00;;;;;;5048399;28;20064;-65
2021/08/17 02:49:24;;;;;;;1.98;1.48;;;25.80;52.00;;;;;;5044770;28;20040;-68
2021/08/17 02:51:50;;;;;;;2.25;1.65;;;25.80;52.00;;;;;;5047816;28;20025;-66
2021/08/17 02:54:15;;;;;;;2.40;1.60;;;25.80;52.00;;;;;;5050918;28;20681;-69
2021/08/17 02:56:41;;;;;;;2.33;1.65;;;25.80;52.00;;;;;;5047432;28;20076;-65
2021/08/17 02:59:06;;;;;;;2.33;1.60;;;25.80;52.00;;;;;;5053416;28;20024;-66
2021/08/17 03:01:32;;;;;;;2.30;1.63;;;25.80;52.10;;;;;;5050372;28;20453;-65
2021/08/17 03:03:58;;;;;;;2.20;1.50;;;25.70;52.00;;;;;;5042996;28;20434;-65
2021/08/17 03:06:23;;;;;;;2.20;1.50;;;25.70;52.00;;;;;;5057210;28;20901;-69
2021/08/17 03:08:49;;;;;;;2.03;1.35;;;25.70;52.00;;;;;;5053660;28;20116;-69
2021/08/17 03:11:15;;;;;;;2.13;1.60;;;25.70;52.00;;;;;;5046765;28;20028;-65
2021/08/17 03:13:40;;;;;;;2.08;1.20;;;25.70;52.00;;;;;;5047200;28;20123;-65
2021/08/17 03:16:06;;;;;;;2.00;1.40;;;25.70;52.00;;;;;;5055451;28;20109;-66
2021/08/17 03:18:31;;;;;;;2.00;1.42;;;25.70;52.10;;;;;;5046836;28;20121;-65
2021/08/17 03:20:58;;;;;;;2.28;1.58;;;25.70;52.00;;;;;;5049077;28;20091;-65
2021/08/17 03:23:26;;;;;;;1.60;1.20;;;25.70;52.10;;;;;;5044917;28;20531;-66
2021/08/17 03:25:54;;;;;;;1.88;1.30;;;25.70;52.10;;;;;;5034126;28;20024;-65
2021/08/17 03:28:19;;;;;;;1.98;1.58;;;25.70;52.10;;;;;;5027576;28;20481;-65
2021/08/17 03:30:45;;;;;;;2.13;1.48;;;25.70;52.10;;;;;;5039187;28;20052;-64
2021/08/17 03:33:11;;;;;;;2.40;1.65;;;25.70;52.10;;;;;;5037074;28;20087;-65
2021/08/17 03:35:36;;;;;;;2.20;1.50;;;25.70;52.10;;;;;;5043059;28;20033;-65
2021/08/17 03:38:02;;;;;;;2.45;1.70;;;25.70;52.10;;;;;;5047040;28;20037;-68
2021/08/17 03:40:28;;;;;;;2.35;1.63;;;25.70;52.10;;;;;;5046686;28;20103;-68
2021/08/17 03:42:54;;;;;;;2.08;1.50;;;25.70;52.20;;;;;;5045661;28;20060;-63
2021/08/17 03:45:21;;;;;;;2.40;1.60;;;25.70;52.20;;;;;;5047915;28;20104;-65
2021/08/17 03:47:47;;;;;;;1.98;1.38;;;25.70;52.20;;;;;;5048810;28;20335;-67
2021/08/17 03:50:14;;;;;;;2.53;1.50;;;25.70;52.20;;;;;;5046400;28;20020;-65
2021/08/17 03:52:41;;;;;;;1.88;1.40;;;25.70;52.20;;;;;;5040565;28;20029;-66
2021/08/17 03:55:07;;;;;;;2.22;1.55;;;25.70;52.20;;;;;;5034504;28;20052;-67
2021/08/17 03:57:32;;;;;;;1.90;1.40;;;25.70;52.20;;;;;;5065442;28;20125;-64
2021/08/17 03:59:58;;;;;;;2.30;1.63;;;25.70;52.20;;;;;;5047610;28;20492;-65
2021/08/17 04:02:24;;;;;;;1.80;1.27;;;25.70;52.20;;;;;;5045244;28;20032;-65
2021/08/17 04:04:50;;;;;;;2.13;1.60;;;25.70;52.20;;;;;;5046109;28;20461;-65
2021/08/17 04:07:16;;;;;;;1.90;1.33;;;25.70;52.20;;;;;;5045571;28;20518;-64
2021/08/17 04:09:41;;;;;;;1.92;1.30;;;25.70;52.20;;;;;;5044705;28;20529;-64
2021/08/17 04:12:07;;;;;;;2.22;1.45;;;25.70;52.20;;;;;;5042663;28;20109;-67
2021/08/17 04:14:33;;;;;;;1.95;1.23;;;25.60;52.20;;;;;;5054247;28;20032;-65
2021/08/17 04:16:59;;;;;;;2.10;1.40;;;25.70;52.20;;;;;;5045988;28;20045;-68
2021/08/17 04:19:25;;;;;;;1.95;1.30;;;25.60;52.20;;;;;;5045604;28;20786;-64
2021/08/17 04:21:51;;;;;;;2.05;1.40;;;25.60;52.20;;;;;;5040286;28;20025;-65
2021/08/17 04:24:17;;;;;;;1.92;1.40;;;25.60;52.20;;;;;;5034318;28;20076;-64
2021/08/17 04:26:42;;;;;;;1.83;1.30;;;25.60;52.30;;;;;;5048016;28;20029;-65
2021/08/17 04:29:08;;;;;;;1.88;1.33;;;25.60;52.20;;;;;;5051376;28;20025;-64
2021/08/17 04:31:34;;;;;;;2.33;1.55;;;25.60;52.20;;;;;;5045668;28;20611;-64
2021/08/17 04:33:59;;;;;;;1.50;1.20;;;25.60;52.20;;;;;;5037282;28;20029;-65
2021/08/17 04:36:25;;;;;;;1.52;1.10;;;25.60;52.30;;;;;;5045866;28;20453;-64
2021/08/17 04:38:50;;;;;;;1.77;1.33;;;25.60;52.30;;;;;;5045545;28;20067;-64
2021/08/17 04:41:16;;;;;;;1.98;1.33;;;25.60;52.30;;;;;;5045016;28;20029;-65
2021/08/17 04:43:42;;;;;;;1.88;1.33;;;25.60;52.30;;;;;;5046634;28;20037;-64
2021/08/17 04:46:08;;;;;;;2.08;1.42;;;25.60;52.30;;;;;;5049249;28;20018;-65
2021/08/17 04:48:33;;;;;;;2.20;1.48;;;25.60;52.30;;;;;;5052920;28;20017;-64
2021/08/17 04:50:59;;;;;;;2.03;1.40;;;25.60;52.30;;;;;;5049196;28;20031;-64
2021/08/17 04:53:26;;;;;;;1.90;1.30;;;25.60;52.30;;;;;;5050686;28;20036;-63
2021/08/17 04:55:52;;;;;;;1.90;1.35;;;25.60;52.80;;;;;;5049570;28;20120;-67
2021/08/17 04:58:17;;;;;;;2.15;1.48;;;25.60;52.40;;;;;;5049381;28;20087;-67
2021/08/17 05:00:44;;;;;;;1.95;1.30;;;25.50;52.30;;;;;;5048465;28;20078;-66
2021/08/17 05:03:10;;;;;;;2.00;1.40;;;25.60;52.30;;;;;;5045367;28;20092;-63
2021/08/17 05:05:36;;;;;;;2.13;1.33;;;25.50;52.30;;;;;;5049867;28;20130;-65
2021/08/17 05:08:11;;;;;;;1.95;1.40;;;25.50;52.30;;;;;;5046730;28;20131;-66
2021/08/17 05:10:38;;;;;;;1.85;1.40;;;25.60;52.40;;;;;;5048759;28;20526;-66
2021/08/17 05:13:04;;;;;;;2.33;1.70;;;25.50;52.30;;;;;;5045337;28;20047;-66
2021/08/17 05:15:31;;;;;;;3.08;2.00;;;25.50;49.90;;;;;;5044044;28;20036;-67
2021/08/17 05:17:57;;;;;;;3.42;2.20;;;25.40;47.30;;;;;;5042033;28;20376;-66
2021/08/17 05:20:23;;;;;;;3.95;2.35;;;25.40;45.80;;;;;;5051979;28;20614;-64
2021/08/17 05:22:49;;;;;;;3.17;1.95;;;25.20;44.20;;;;;;5051814;28;20100;-67
2021/08/17 05:25:15;;;;;;;3.75;2.30;;;25.10;44.10;;;;;;5038835;28;20048;-66
2021/08/17 05:27:41;;;;;;;4.32;2.22;;;25.00;42.50;;;;;;5044229;28;20087;-65
2021/08/17 05:30:08;;;;;;;9.27;2.50;;;24.90;42.90;;;;;;5043183;28;20037;-64
2021/08/17 05:32:34;;;;;;;5.00;2.58;;;24.70;41.40;;;;;;5044953;28;20030;-66
2021/08/17 05:34:59;;;;;;;4.22;2.40;;;24.50;42.10;;;;;;5040498;28;20102;-65
2021/08/17 05:37:25;;;;;;;5.30;2.95;;;24.30;42.30;;;;;;5045691;28;20033;-64
2021/08/17 05:39:51;;;;;;;4.82;2.75;;;24.10;41.60;;;;;;5043901;28;20139;-68
2021/08/17 05:42:16;;;;;;;4.75;2.70;;;24.00;42.40;;;;;;5044002;28;20594;-66
2021/08/17 05:44:44;;;;;;;4.72;2.65;;;23.80;41.80;;;;;;5040605;28;20104;-65
2021/08/17 05:47:11;;;;;;;4.63;2.50;;;23.70;42.60;;;;;;5042945;28;20120;-66
2021/08/17 05:49:37;;;;;;;4.93;2.53;;;23.50;42.30;;;;;;5044492;28;20388;-68
2021/08/17 05:52:11;;;;;;;3.22;2.28;;;23.40;42.40;;;;;;5042389;28;20048;-63
2021/08/17 05:54:37;;;;;;;4.25;2.30;;;23.30;42.80;;;;;;5037623;28;20029;-65
2021/08/17 05:57:03;;;;;;;4.78;2.50;;;23.20;43.00;;;;;;5041410;28;20025;-66
2021/08/17 05:59:30;;;;;;;4.65;2.60;;;23.10;42.50;;;;;;5044502;28;20500;-66
2021/08/17 06:01:56;;;;;;;4.10;2.40;;;22.90;42.80;;;;;;5043797;28;20033;-66
2021/08/17 06:04:22;;;;;;;3.40;2.17;;;22.70;43.00;;;;;;5043329;28;20111;-65
2021/08/17 06:06:48;;;;;;;4.43;2.30;;;22.50;43.40;;;;;;5045367;28;20601;-64
2021/08/17 06:09:15;;;;;;;4.43;2.53;;;22.40;44.00;;;;;;5042138;28;20027;-64
2021/08/17 06:11:41;;;;;;;4.88;2.50;;;22.40;44.20;;;;;;5054647;28;20119;-65
2021/08/17 06:14:07;;;;;;;3.67;2.17;;;22.30;44.00;;;;;;5044548;28;20376;-64
2021/08/17 06:16:34;;;;;;;4.32;2.50;;;22.30;44.60;;;;;;5041426;28;20024;-62
2021/08/17 06:18:59;;;;;;;4.63;2.50;;;22.30;43.80;;;;;;5042423;28;20041;-65
2021/08/17 06:21:26;;;;;;;3.50;2.40;;;22.30;43.60;;;;;;5045812;28;20041;-63
2021/08/17 06:23:52;;;;;;;4.82;2.40;;;22.20;43.40;;;;;;5040095;28;20347;-65
2021/08/17 06:26:17;;;;;;;3.85;2.60;;;22.00;44.00;;;;;;5036679;28;20087;-65
2021/08/17 06:28:44;;;;;;;3.80;1.90;;;22.00;44.70;;;;;;5037351;28;20374;-64
2021/08/17 06:31:12;;;;;;;5.50;1.90;;;22.10;44.90;;;;;;5043204;28;20029;-64
2021/08/17 06:33:38;;;;;;;3.55;1.70;;;22.20;45.10;;;;;;5042991;28;20040;-62
2021/08/17 06:36:04;;;;;;;3.30;1.80;;;22.40;45.30;;;;;;5040398;28;20021;-67
2021/08/17 06:38:29;;;;;;;3.70;1.85;;;22.50;45.50;;;;;;5046159;28;20031;-65
2021/08/17 06:40:55;;;;;;;2.67;1.70;;;22.50;45.70;;;;;;5043604;28;20116;-67
2021/08/17 06:43:22;;;;;;;3.88;1.70;;;22.60;45.80;;;;;;5042605;28;20411;-66
2021/08/17 06:45:48;;;;;;;3.00;1.63;;;22.70;46.00;;;;;;5044940;28;20052;-66
2021/08/17 06:48:14;;;;;;;2.88;1.70;;;22.70;46.10;;;;;;5041642;28;20164;-67
2021/08/17 06:50:40;;;;;;;2.78;1.55;;;22.70;46.20;;;;;;5045983;28;20739;-63
2021/08/17 06:53:05;;;;;;;2.75;1.77;;;22.80;46.40;;;;;;5044414;28;20095;-66
2021/08/17 06:55:31;;;;;;;2.65;1.55;;;22.80;46.60;;;;;;5043451;28;20028;-66
2021/08/17 06:57:57;;;;;;;3.10;1.58;;;22.80;46.70;;;;;;5041314;28;20029;-68
2021/08/17 07:00:22;;;;;;;2.53;1.50;;;22.90;46.90;;;;;;5045484;28;20414;-66
2021/08/17 07:02:48;;;;;;;2.67;1.63;;;22.90;47.00;;;;;;5059966;28;20021;-66
2021/08/17 07:05:13;;;;;;;2.80;1.48;;;22.90;47.10;;;;;;5045538;28;20094;-66
2021/08/17 07:07:39;;;;;;;2.42;1.42;;;23.00;47.30;;;;;;5042441;28;20057;-66
2021/08/17 07:10:05;;;;;;;2.63;1.40;;;22.90;47.30;;;;;;5041112;28;20100;-66
2021/08/17 07:12:31;;;;;;;2.85;1.73;;;23.00;47.40;;;;;;5047499;28;20107;-66
2021/08/17 07:14:57;;;;;;;2.70;1.70;;;23.00;47.50;;;;;;5037010;28;20021;-67
2021/08/17 07:17:22;;;;;;;2.28;1.38;;;23.00;47.50;;;;;;5041844;28;20029;-65
2021/08/17 07:19:48;;;;;;;2.20;1.40;;;23.00;47.60;;;;;;5046460;28;20389;-66
2021/08/17 07:22:14;;;;;;;2.30;1.40;;;23.10;47.70;;;;;;5042446;28;20115;-66
2021/08/17 07:24:39;;;;;;;2.47;1.50;;;23.10;47.70;;;;;;5043218;28;20049;-66
2021/08/17 07:27:05;;;;;;;2.60;1.50;;;23.10;47.80;;;;;;5045631;28;20064;-65
2021/08/17 07:29:30;;;;;;;2.67;1.60;;;23.10;47.80;;;;;;5042362;28;20017;-67
2021/08/17 07:31:56;;;;;;;2.30;1.25;;;23.10;47.90;;;;;;5042836;28;20407;-63
2021/08/17 07:34:21;;;;;;;2.90;1.45;;;23.10;47.90;;;;;;5045364;28;20101;-64
2021/08/17 07:36:47;;;;;;;3.45;1.50;;;23.10;47.90;;;;;;5044617;28;20033;-66
2021/08/17 07:39:13;;;;;;;2.20;1.40;;;23.10;48.00;;;;;;5045273;28;20452;-67
2021/08/17 07:41:39;;;;;;;2.10;1.33;;;23.10;48.00;;;;;;5045837;28;20131;-67
2021/08/17 07:44:05;;;;;;;2.13;1.40;;;23.20;48.10;;;;;;5054448;28;20025;-64
2021/08/17 07:46:31;;;;;;;2.35;1.50;;;23.20;48.20;;;;;;5031230;28;20119;-66
2021/08/17 07:48:57;;;;;;;2.97;1.50;;;23.20;48.20;;;;;;5046016;28;20074;-64
2021/08/17 07:51:23;;;;;;;2.30;1.40;;;23.20;48.20;;;;;;5044328;28;20376;-63
2021/08/17 07:53:50;;;;;;;2.30;1.35;;;23.20;48.30;;;;;;5058098;28;20041;-62
2021/08/17 07:56:18;;;;;;;1.75;1.23;;;23.30;48.30;;;;;;5040817;28;20495;-67
2021/08/17 07:58:44;;;;;;;2.20;1.40;;;23.30;48.40;;;;;;5042891;28;20116;-63
2021/08/17 08:01:13;;;;;;;2.60;1.40;;;23.30;48.40;;;;;;5039881;28;20040;-66
2021/08/17 08:03:40;;;;;;;2.50;1.40;;;23.30;48.40;;;;;;5039696;28;20030;-67
2021/08/17 08:06:06;;;;;;;1.95;1.30;;;23.30;48.40;;;;;;5042008;28;20368;-66
2021/08/17 08:08:32;;;;;;;2.42;1.33;;;23.30;48.50;;;;;;5041194;28;20431;-66
2021/08/17 08:10:58;;;;;;;2.50;1.42;;;23.30;48.50;;;;;;5037511;28;20104;-66
2021/08/17 08:13:24;;;;;;;2.38;1.42;;;23.30;48.50;;;;;;5039669;28;20045;-63
2021/08/17 08:15:49;;;;;;;2.65;1.60;;;23.30;48.60;;;;;;5042763;28;20110;-66
2021/08/17 08:18:15;;;;;;;2.28;1.60;;;23.30;48.60;;;;;;5041444;28;20496;-66
2021/08/17 08:20:42;;;;;;;2.08;1.38;;;23.30;48.60;;;;;;5042122;28;20036;-66
2021/08/17 08:23:08;;;;;;;2.45;1.52;;;23.40;48.70;;;;;;5042704;28;20037;-67
2021/08/17 08:25:35;;;;;;;2.40;1.60;;;23.30;48.60;;;;;;5031300;28;20033;-64
2021/08/17 08:28:01;;;;;;;2.80;1.63;;;23.40;48.70;;;;;;5039821;28;20059;-66
2021/08/17 08:30:26;;;;;;;2.13;1.50;;;23.40;48.70;;;;;;5038413;28;20082;-66
2021/08/17 08:32:52;;;;;;;2.50;1.50;;;23.40;48.70;;;;;;5039788;28;20511;-67
2021/08/17 08:35:18;;;;;;;2.22;1.55;;;23.40;48.70;;;;;;5037538;28;20154;-66
2021/08/17 08:37:43;;;;;;;2.03;1.40;;;23.40;48.80;;;;;;5042446;28;20061;-66
2021/08/17 08:40:10;;;;;;;2.40;1.50;;;23.40;48.80;;;;;;5037314;28;20242;-67
2021/08/17 08:42:37;;;;;;;2.22;1.50;;;23.40;48.80;;;;;;5039301;28;20037;-67
2021/08/17 08:45:03;;;;;;;2.28;1.40;;;23.40;48.80;;;;;;5039218;28;20052;-66
2021/08/17 08:47:32;;;;;;;2.55;1.40;;;23.40;48.80;;;;;;5037987;28;20055;-67
2021/08/17 08:49:58;;;;;;;2.28;1.40;;;23.50;48.90;;;;;;5044007;28;20486;-64
2021/08/17 08:52:24;;;;;;;1.90;1.40;;;23.40;48.80;;;;;;5040199;28;20025;-66
2021/08/17 08:54:50;;;;;;;2.28;1.40;;;23.50;48.90;;;;;;5045373;28;20906;-67
2021/08/17 08:57:16;;;;;;;2.33;1.33;;;23.50;48.90;;;;;;5044528;28;20025;-66
2021/08/17 08:59:42;;;;;;;2.70;1.40;;;23.40;48.90;;;;;;5042950;28;20033;-67
2021/08/17 09:02:10;;;;;;;2.78;1.52;;;23.50;49.00;;;;;;5044529;28;20044;-64
2021/08/17 09:04:37;;;;;;;2.53;1.42;;;23.50;49.00;;;;;;5041231;28;20086;-67
2021/08/17 09:07:03;;;;;;;2.28;1.30;;;23.50;49.00;;;;;;5043120;28;20017;-63
2021/08/17 09:09:29;;;;;;;2.05;1.30;;;23.50;49.00;;;;;;5036095;28;20025;-66
2021/08/17 09:11:57;;;;;;;2.10;1.50;;;23.50;49.10;;;;;;5038898;28;20044;-66
2021/08/17 09:14:30;;;;;;;2.30;1.40;;;23.50;49.10;;;;;;5041112;28;20108;-66
2021/08/17 09:16:59;;;;;;;2.00;1.38;;;23.50;49.10;;;;;;5042700;28;20166;-66
2021/08/17 09:19:35;;;;;;;1.67;1.20;;;23.60;49.20;;;;;;5036160;28;20125;-65
2021/08/17 09:22:19;;;;;;;1.83;1.30;;;23.50;49.10;;;;;;5040375;28;20545;-66
2021/08/17 09:24:47;;;;;;;2.17;1.30;;;23.60;49.20;;;;;;5041393;28;20029;-67
2021/08/17 09:27:15;;;;;;;2.03;1.40;;;23.60;49.20;;;;;;5040816;28;20123;-67
2021/08/17 09:29:44;;;;;;;1.98;1.30;;;23.60;49.20;;;;;;5042871;28;20067;-62
2021/08/17 09:32:18;;;;;;;2.05;1.30;;;23.60;49.20;;;;;;5044229;28;20060;-66
2021/08/17 09:35:04;;;;;;;1.90;1.20;;;23.60;49.30;;;;;;5045078;28;20030;-62
2021/08/17 09:37:33;;;;;;;2.00;1.30;;;23.60;49.30;;;;;;5045195;28;20477;-66
2021/08/17 09:40:04;;;;;;;2.23;1.43;;;23.60;49.30;;;;;;5041831;28;20025;-64
2021/08/17 09:42:32;;;;;;;2.00;1.23;;;23.60;49.30;;;;;;5045811;28;20288;-66
2021/08/17 09:45:16;;;;;;;2.15;1.40;;;23.60;49.40;;;;;;5041149;28;20742;-67
2021/08/17 09:47:53;;;;;;;1.73;1.20;;;23.60;49.30;;;;;;5043847;28;20036;-66
2021/08/17 09:50:24;;;;;;;1.75;1.05;;;23.60;49.40;;;;;;5042550;28;20052;-66
2021/08/17 09:53:04;;;;;;;2.42;1.27;;;23.60;49.40;;;;;;5044591;28;20036;-66
2021/08/17 09:55:30;;;;;;;1.92;1.30;;;23.60;49.40;;;;;;5045034;28;20524;-63
2021/08/17 09:58:14;;;;;;;2.13;1.20;;;23.60;49.40;;;;;;5043651;28;20036;-66
2021/08/17 10:00:40;;;;;;;2.22;1.30;;;23.70;49.50;;;;;;5042840;28;20595;-66
2021/08/17 10:03:07;;;;;;;2.03;1.35;;;23.70;49.40;;;;;;5042817;28;20036;-64
2021/08/17 10:05:33;;;;;;;2.10;1.23;;;23.70;49.50;;;;;;5045619;28;20067;-66
2021/08/17 10:07:59;;;;;;;1.90;1.30;;;23.70;49.50;;;;;;5045166;28;20123;-66
2021/08/17 10:10:25;;;;;;;1.92;1.17;;;23.70;49.50;;;;;;5046581;28;20018;-65
2021/08/17 10:12:50;;;;;;;1.65;1.10;;;23.70;49.40;;;;;;5041327;28;20077;-63
2021/08/17 10:15:16;;;;;;;2.30;1.40;;;23.70;49.50;;;;;;5043261;28;20082;-65
2021/08/17 10:17:42;;;;;;;2.33;1.40;;;23.70;49.50;;;;;;5039669;28;20384;-65
2021/08/17 10:20:08;;;;;;;2.13;1.40;;;23.70;49.50;;;;;;5044456;28;20028;-66
2021/08/17 10:22:38;;;;;;;2.33;1.30;;;23.70;49.50;;;;;;5045643;28;20097;-64
2021/08/17 10:25:11;;;;;;;2.13;1.40;;;23.70;49.50;;;;;;5044031;28;20330;-66
2021/08/17 10:27:38;;;;;;;2.20;1.30;;;23.70;49.50;;;;;;5045094;28;20143;-66
2021/08/17 10:30:20;;;;;;;2.00;1.30;;;23.80;49.60;;;;;;5045621;28;20024;-66
2021/08/17 10:33:00;;;;;;;2.30;1.40;;;23.80;49.60;;;;;;5040529;28;20183;-63
2021/08/17 10:35:29;;;;;;;1.80;1.10;;;23.80;49.60;;;;;;5044160;28;20389;-65
2021/08/17 10:38:17;;;;;;;2.67;1.27;;;23.80;49.60;;;;;;5046607;28;20021;-65
2021/08/17 10:40:49;;;;;;;1.83;1.23;;;23.80;49.60;;;;;;5044226;28;20035;-65
2021/08/17 10:43:35;;;;;;;1.80;1.30;;;23.80;49.60;;;;;;5039139;28;20095;-65
2021/08/17 10:46:06;;;;;;;1.90;1.30;;;23.80;49.60;;;;;;5043878;28;20444;-63
2021/08/17 10:48:54;;;;;;;2.22;1.33;;;23.80;49.50;;;;;;5041178;28;20074;-65
2021/08/17 10:51:23;;;;;;;1.90;1.27;;;23.80;49.50;;;;;;5044380;28;20036;-65
2021/08/17 10:54:04;;;;;;;1.38;1.05;;;23.80;49.50;;;;;;5040986;28;20087;-66
2021/08/17 10:56:38;;;;;;;1.88;1.20;;;23.80;49.50;;;;;;5044105;28;20234;-65
2021/08/17 10:59:05;;;;;;;1.80;1.10;;;23.80;49.50;;;;;;5045951;28;20036;-67
2021/08/17 11:01:30;;;;;;;1.77;1.20;;;23.90;49.50;;;;;;5046091;28;20068;-64
2021/08/17 11:04:10;;;;;;;2.33;1.27;;;23.90;49.50;;;;;;5043261;28;20344;-67
2021/08/17 11:06:53;;;;;;;2.00;1.30;;;23.90;49.50;;;;;;5041914;28;20056;-66
2021/08/17 11:09:28;;;;;;;2.10;1.33;;;23.90;49.40;;;;;;5044111;28;20040;-64
2021/08/17 11:12:06;;;;;;;1.73;1.20;;;23.90;49.40;;;;;;5042961;28;20072;-64
2021/08/17 11:14:37;;;;;;;2.08;1.25;;;23.90;49.50;;;;;;5040616;28;20021;-64
2021/08/17 11:17:17;;;;;;;2.35;1.30;;;23.90;49.40;;;;;;5041783;28;20489;-65
2021/08/17 11:19:46;;;;;;;;;;;23.90;49.40;;;;;;5039756;28;20790;-64
2021/08/17 11:22:17;;;;;;;1.70;1.20;;;23.90;49.40;;;;;;5042487;28;19966;-63
2021/08/17 11:24:46;;;;;;;2.00;1.20;;;23.90;49.40;;;;;;5039493;28;20053;-64
2021/08/17 11:27:19;;;;;;;;;;;23.90;49.40;;;;;;5039996;28;20422;-65
2021/08/17 11:29:46;;;;;;;1.90;1.27;;;23.90;49.40;;;;;;5034755;28;20165;-64
2021/08/17 11:32:27;;;;;;;2.08;1.30;;;24.00;49.50;;;;;;5033803;28;20289;-63
2021/08/17 11:34:53;;;;;;;1.88;1.13;;;24.00;49.50;;;;;;5035867;28;20173;-64
2021/08/17 11:37:19;;;;;;;2.00;1.25;;;24.00;49.50;;;;;;5038541;28;20155;-64
2021/08/17 11:39:48;;;;;;;2.13;1.30;;;24.00;49.50;;;;;;5029919;28;20098;-65
2021/08/17 11:42:35;;;;;;;2.40;1.50;;;24.00;49.50;;;;;;5033200;28;20120;-65
2021/08/17 11:45:06;;;;;;;3.03;1.60;;;24.00;48.90;;;;;;5038096;28;20057;-64
2021/08/17 11:47:32;;;;;;;3.30;1.50;;;24.00;47.30;;;;;;5034829;28;20028;-63
2021/08/17 11:50:01;;;;;;;2.70;1.80;;;24.00;46.40;;;;;;5034408;28;20083;-65
2021/08/17 11:52:34;;;;;;;2.90;1.80;;;23.90;45.50;;;;;;5035927;28;20163;-64
2021/08/17 11:55:05;;;;;;;3.10;2.00;;;23.90;44.90;;;;;;5036245;28;20389;-62
2021/08/17 11:57:33;;;;;;;2.92;2.03;;;23.90;44.00;;;;;;5033081;28;20017;-65
2021/08/17 12:00:08;;;;;;;2.97;2.00;;;23.90;43.40;;;;;;5039670;28;20051;-65
2021/08/17 12:02:34;;;;;;;3.45;2.03;;;23.90;42.70;;;;;;5033172;28;20789;-65
2021/08/17 12:05:05;;;;;;;3.47;2.00;;;23.90;42.70;;;;;;5036272;28;20033;-64
2021/08/17 12:07:32;;;;;;;3.55;2.10;;;23.90;42.40;;;;;;5042258;28;20425;-65
2021/08/17 12:10:11;;;;;;;3.55;2.00;;;23.90;42.10;;;;;;5038755;28;20036;-64
2021/08/17 12:12:57;;;;;;;3.05;1.98;;;23.90;41.60;;;;;;5038572;28;20037;-63
2021/08/17 12:15:41;;;;;;;3.15;1.85;;;23.90;41.50;;;;;;5025810;28;20127;-65
2021/08/17 12:18:07;;;;;;;2.92;1.80;;;23.90;41.60;;;;;;5040266;28;20028;-65
2021/08/17 12:20:35;;;;;;;2.55;1.73;;;23.90;42.40;;;;;;5039332;28;20111;-65
2021/08/17 12:23:17;;;;;;;4.03;2.10;;;23.90;41.70;;;;;;5040158;28;20099;-65
2021/08/17 12:25:43;;;;;;;2.63;1.83;;;23.90;41.30;;;;;;5039966;28;20286;-65
2021/08/17 12:28:13;;;;;;;3.00;1.90;;;23.90;41.50;;;;;;5041258;28;20021;-64
2021/08/17 12:30:39;;;;;;;3.03;2.00;;;23.90;41.90;;;;;;5038797;28;20353;-66
2021/08/17 12:33:04;;;;;;;3.38;2.03;;;23.90;41.40;;;;;;5036314;28;20037;-65
2021/08/17 12:35:35;;;;;;;3.15;2.05;;;23.80;41.40;;;;;;5041784;28;20655;-64
2021/08/17 12:38:14;;;;;;;3.53;1.85;;;23.80;42.00;;;;;;5043100;28;20393;-65
2021/08/17 12:40:53;;;;;;;2.92;1.80;;;23.80;41.00;;;;;;5041896;28;20040;-65
2021/08/17 12:43:25;;;;;;;3.20;2.10;;;23.90;40.90;;;;;;5039755;28;20037;-65
2021/08/17 12:45:51;;;;;;;3.38;2.10;;;23.80;40.80;;;;;;5040699;28;20048;-63
2021/08/17 12:48:18;;;;;;;2.97;1.88;;;23.80;40.80;;;;;;5034862;28;20032;-64
2021/08/17 12:50:45;;;;;;;3.72;1.90;;;23.80;40.60;;;;;;5040186;28;20410;-65